KFOZ

Details ICAO KFOZ
Name BIGFORK MUNI
Region United States
Timezone America/Chicago (UTC-5.0)
Plans Departing 0
Arriving 1
Stats Elevation 1,348 ft / 411 m (AMSL)
Location 47.782834° -93.650194°
Runways 1
Magnetic Variation 0.169° E
Sunrise 2018-05-24 10:28:01 UTC / 2018-05-24 05:28:01 Local
Sunset 2018-05-25 01:57:47 UTC / 2018-05-24 20:57:47 Local
Advertisement - Login to hide

Runways

ID Width Length Bearing (true) Bearing (mag) Surface Threshold Offset Overrun Length
15 75 ft / 23 m 3,103 ft / 946 m 151.12° 150.95° Asphalt 0 ft / 0 m 0 ft / 0 m
33 75 ft / 23 m 3,103 ft / 946 m 331.12° 330.95° Asphalt 0 ft / 0 m 0 ft / 0 m

Map

Weather


0- 5 10 15 20 25 30 35+ Temperature / ° C

Clouds and Precipitation
Forecast for 2018-05-25 00:00 UTC. Updated 3 hours ago

Ground ~20,000 ft ~40,000 ft Winds

METAR

KFOZ 250213Z AUTO 00000KT 10SM CLR 21/19 A2979 RMK AO2 LTG DSNT N

TAF

Not found

Frequencies

Unicom 122.90 MHz CTAF
Warning: Do not use this data for real-world aviation or navigation. No guarantee of current accuracy is given.